Corinth Center, Vermont
Current Conditions -  °F | °C
As of 5:08 AM on Sunday 25 Jan 2015 (Local Time) from KMPV Reporting Station
Light Snow Light Snow  
Wind Chill: 19°   Ceiling: 3000
Heat Index: 28°   Visibility: 3mi
Dew Point: 24°   Wind: 10mph
Humidity: 85%   Direction: 300°WNW
Pressure: 29.37"   Gusts: NA
Location:  44.0361°N, 72.2949°W
Report Text: KMPV 251008Z AUTO 30009KT 3SM -SN BR FEW023 BKN030 OVC035 M02/M04 A2937 RMK AO2 P0000 T10221044
Loading
Personal Weather Stations






























Interactive Weather Map New forecast layout! Learn more

10-Day Weather Forecast

Advertisements
Track Severe Weather on mobile